Time;durP1;ratioP1;P1;durP2;ratioP2;P2;SDS_P1;SDS_P2;PMS_P1;PMS_P2;Temp;Humidity;BMP_temperature;BMP_pressure;BME280_temperature;BME280_humidity;BME280_pressure;Samples;Min_cycle;Max_cycle;Signal;HPM_P1;HPM_P2
2021/04/25 00:00:24;;;;;;;13.77;7.35;;;;;;;5.57;100.00;95014.28;10365410;28;20037;-80
2021/04/25 00:05:24;;;;;;;18.73;8.05;;;;;;;5.58;100.00;95007.09;10347683;28;20030;-80
2021/04/25 00:10:25;;;;;;;17.88;7.18;;;;;;;5.62;100.00;94997.56;10366346;28;20427;-80
2021/04/25 00:15:26;;;;;;;12.85;7.38;;;;;;;5.64;100.00;95006.16;10365725;28;20073;-79
2021/04/25 00:20:27;;;;;;;15.70;7.78;;;;;;;5.50;100.00;95007.44;10364913;28;20053;-79
2021/04/25 00:25:27;;;;;;;14.07;7.87;;;;;;;5.31;100.00;95002.25;10364902;28;20416;-80
2021/04/25 00:30:28;;;;;;;13.67;8.57;;;;;;;5.21;100.00;94994.06;10365344;28;20312;-80
2021/04/25 00:35:28;;;;;;;16.07;9.83;;;;;;;5.07;100.00;95002.28;10368221;28;20026;-80
2021/04/25 00:40:29;;;;;;;22.63;10.23;;;;;;;4.94;100.00;95000.66;10372153;28;20288;-80
2021/04/25 00:45:29;;;;;;;31.77;13.23;;;;;;;4.93;100.00;95007.00;10371824;28;20463;-80
2021/04/25 00:50:30;;;;;;;31.35;15.20;;;;;;;4.91;100.00;95000.28;10355058;28;20030;-81
2021/04/25 00:55:32;;;;;;;25.50;13.00;;;;;;;4.98;100.00;95003.66;10372785;28;20697;-80
2021/04/25 01:00:33;;;;;;;23.75;12.60;;;;;;;4.90;100.00;95006.69;10370619;28;20724;-80
2021/04/25 01:05:33;;;;;;;29.95;15.75;;;;;;;4.90;100.00;94999.50;10367880;28;20440;-80
2021/04/25 01:10:34;;;;;;;24.83;12.60;;;;;;;4.93;100.00;94998.22;10365949;28;20021;-81
2021/04/25 01:15:34;;;;;;;33.60;15.32;;;;;;;4.84;100.00;95002.25;10370901;28;20273;-81
2021/04/25 01:20:35;;;;;;;27.90;17.23;;;;;;;4.82;100.00;94999.03;10372361;28;20092;-81
2021/04/25 01:25:35;;;;;;;30.97;16.93;;;;;;;4.78;100.00;95001.34;10371668;28;20544;-80
2021/04/25 01:30:36;;;;;;;32.83;19.27;;;;;;;4.81;100.00;94997.41;10371712;28;20848;-80
2021/04/25 01:35:36;;;;;;;30.15;17.67;;;;;;;4.75;100.00;94997.28;10371504;28;20032;-80
2021/04/25 01:40:37;;;;;;;30.45;17.85;;;;;;;4.76;100.00;94998.91;10369360;28;20400;-80
2021/04/25 01:45:38;;;;;;;39.97;20.90;;;;;;;4.58;100.00;94994.47;10410373;28;20394;-80
2021/04/25 01:50:38;;;;;;;30.85;17.90;;;;;;;4.69;100.00;94989.38;10411578;28;20359;-80
2021/04/25 01:55:40;;;;;;;29.05;16.52;;;;;;;4.66;100.00;94998.66;10411353;28;20026;-80
2021/04/25 02:00:44;;;;;;;36.72;18.08;;;;;;;4.59;100.00;94998.75;10411375;28;20029;-81
2021/04/25 02:05:45;;;;;;;35.10;15.95;;;;;;;4.42;100.00;94997.78;10410697;28;20404;-80
2021/04/25 02:10:57;;;;;;;39.33;18.07;;;;;;;4.34;100.00;94998.13;10410725;28;20022;-80
2021/04/25 02:15:58;;;;;;;40.03;19.25;;;;;;;4.15;100.00;94994.72;10403789;28;20762;-80
2021/04/25 02:20:58;;;;;;;42.90;21.80;;;;;;;4.35;100.00;94986.44;10361440;28;20029;-80
2021/04/25 02:25:59;;;;;;;39.05;20.33;;;;;;;4.22;100.00;94980.28;10364023;28;20033;-80
2021/04/25 02:30:59;;;;;;;39.95;20.58;;;;;;;4.33;100.00;94976.03;10364059;28;20098;-81
2021/04/25 02:36:00;;;;;;;37.53;19.93;;;;;;;4.37;100.00;94971.88;10367549;28;20022;-81
2021/04/25 02:41:01;;;;;;;42.57;20.10;;;;;;;4.30;100.00;94971.16;10351056;28;20277;-81
2021/04/25 02:46:01;;;;;;;41.80;19.15;;;;;;;4.30;100.00;94965.00;10368422;28;20296;-81
2021/04/25 02:51:02;;;;;;;31.55;16.25;;;;;;;4.36;100.00;94958.81;10369134;28;20030;-81
2021/04/25 02:56:03;;;;;;;26.75;13.57;;;;;;;4.35;100.00;94975.78;10367927;28;20109;-80
2021/04/25 03:01:04;;;;;;;19.58;11.27;;;;;;;4.27;100.00;94964.44;10350082;28;20025;-81
2021/04/25 03:06:04;;;;;;;22.90;11.95;;;;;;;4.33;100.00;94956.59;10367845;28;20420;-80
2021/04/25 03:11:05;;;;;;;21.70;10.30;;;;;;;4.24;100.00;94964.06;10358632;28;20037;-80
2021/04/25 03:16:05;;;;;;;17.58;9.65;;;;;;;4.14;100.00;94959.31;10364210;28;20279;-80
2021/04/25 03:21:05;;;;;;;16.40;9.43;;;;;;;4.00;100.00;94957.88;10366321;28;20018;-81
2021/04/25 03:26:06;;;;;;;17.77;8.90;;;;;;;3.93;100.00;94965.94;10366179;28;20779;-80
2021/04/25 03:31:06;;;;;;;18.23;9.77;;;;;;;3.99;100.00;94980.19;10369536;28;20029;-80
2021/04/25 03:36:07;;;;;;;13.35;8.38;;;;;;;3.98;100.00;94973.25;10369315;28;20021;-80
2021/04/25 03:41:07;;;;;;;19.08;9.88;;;;;;;3.89;100.00;94981.56;10351702;28;20022;-80
2021/04/25 03:46:08;;;;;;;23.27;10.80;;;;;;;3.81;100.00;94976.56;10368766;28;20045;-82
2021/04/25 03:51:08;;;;;;;22.67;11.83;;;;;;;3.70;100.00;94972.78;10366455;28;20706;-82
2021/04/25 03:56:08;;;;;;;32.58;12.88;;;;;;;3.80;100.00;94971.47;10368796;28;20362;-80
2021/04/25 04:01:09;;;;;;;27.37;13.83;;;;;;;3.87;100.00;94978.31;10368678;28;20030;-79
2021/04/25 04:06:09;;;;;;;36.87;14.23;;;;;;;3.99;100.00;94985.50;10375300;28;20100;-79
2021/04/25 04:11:10;;;;;;;26.13;15.10;;;;;;;4.02;100.00;94982.41;10406009;28;20770;-80
2021/04/25 04:16:10;;;;;;;38.87;16.37;;;;;;;4.11;100.00;95000.47;10385189;28;20727;-75
2021/04/25 04:21:10;;;;;;;24.23;12.60;;;;;;;4.23;100.00;95005.84;10384693;28;20817;-75
2021/04/25 04:26:11;;;;;;;32.00;13.15;;;;;;;4.32;100.00;94997.53;10401190;28;20355;-78
2021/04/25 04:31:11;;;;;;;24.77;13.18;;;;;;;4.41;100.00;95006.81;10401293;28;20029;-76
2021/04/25 04:36:12;;;;;;;28.57;13.83;;;;;;;4.49;100.00;95006.47;10401147;28;20694;-76
2021/04/25 04:41:12;;;;;;;29.25;14.38;;;;;;;4.68;100.00;95009.88;10370796;28;20030;-77
2021/04/25 04:46:13;;;;;;;28.42;15.95;;;;;;;4.85;100.00;95012.69;10360013;28;20049;-76
2021/04/25 04:51:13;;;;;;;34.88;17.08;;;;;;;4.96;100.00;95009.22;10360119;28;20092;-75
2021/04/25 04:56:14;;;;;;;26.60;14.93;;;;;;;5.40;100.00;95005.38;10359472;28;20026;-75
2021/04/25 05:01:14;;;;;;;25.55;12.80;;;;;;;6.22;100.00;95011.56;10360033;28;20288;-76
2021/04/25 05:06:14;;;;;;;24.47;13.20;;;;;;;7.05;100.00;95016.44;10358536;28;20483;-75
2021/04/25 05:11:15;;;;;;;27.63;14.65;;;;;;;7.98;100.00;95016.66;10358535;28;20049;-75
2021/04/25 05:16:15;;;;;;;31.00;12.97;;;;;;;8.90;100.00;95007.94;10358482;28;20095;-75
2021/04/25 05:21:15;;;;;;;30.70;16.15;;;;;;;9.91;100.00;95016.13;10361862;28;20873;-76
2021/04/25 05:26:16;;;;;;;25.85;14.52;;;;;;;10.57;99.24;95012.84;10385455;28;20845;-75
2021/04/25 05:31:16;;;;;;;24.07;14.10;;;;;;;11.25;91.58;95016.41;10365355;28;20022;-74
2021/04/25 05:36:17;;;;;;;28.33;14.50;;;;;;;12.03;89.69;95012.50;10372453;28;20021;-75
2021/04/25 05:41:18;;;;;;;38.13;14.93;;;;;;;12.50;77.24;95017.66;10407482;28;20025;-75
2021/04/25 05:46:18;;;;;;;30.23;15.18;;;;;;;13.09;78.90;95005.94;10401114;28;20077;-76
2021/04/25 05:51:19;;;;;;;30.83;16.67;;;;;;;13.66;63.93;95010.84;10398334;28;20105;-75
2021/04/25 05:56:20;;;;;;;32.20;14.03;;;;;;;14.34;63.52;95011.72;10384940;28;20025;-75
2021/04/25 06:01:21;;;;;;;21.17;12.70;;;;;;;14.93;57.69;95003.34;10383553;28;20734;-76
2021/04/25 06:06:21;;;;;;;16.77;9.90;;;;;;;15.79;53.61;95002.19;10386237;28;20064;-76
2021/04/25 06:11:22;;;;;;;23.30;10.37;;;;;;;16.19;53.33;94999.84;10391332;28;20032;-76
2021/04/25 06:16:23;;;;;;;21.23;11.45;;;;;;;16.67;49.93;94993.13;10395197;28;20404;-75
2021/04/25 06:21:25;;;;;;;20.45;9.00;;;;;;;17.39;48.15;94996.91;10393517;28;20108;-76
2021/04/25 06:26:25;;;;;;;20.02;8.85;;;;;;;18.13;45.10;94981.16;10367060;28;20026;-76
2021/04/25 06:31:26;;;;;;;15.17;8.60;;;;;;;18.72;44.62;94969.91;10384374;28;20068;-77
2021/04/25 06:36:26;;;;;;;14.63;7.70;;;;;;;19.55;41.56;94971.63;10375883;28;20021;-75
2021/04/25 06:41:26;;;;;;;15.03;7.77;;;;;;;19.97;41.73;94960.94;10377627;28;20036;-76
2021/04/25 06:46:27;;;;;;;12.63;7.33;;;;;;;20.38;39.23;94963.31;10368193;28;20177;-76
2021/04/25 06:51:28;;;;;;;16.83;7.03;;;;;;;20.55;38.83;94951.47;10401761;28;20022;-76
2021/04/25 06:56:28;;;;;;;14.88;7.18;;;;;;;21.62;38.96;94949.16;10407823;28;20111;-75
2021/04/25 07:01:28;;;;;;;18.58;8.15;;;;;;;21.97;36.38;94943.25;10389481;28;20018;-76
2021/04/25 07:06:29;;;;;;;13.63;8.17;;;;;;;22.09;37.22;94930.72;10408252;28;20029;-76
2021/04/25 07:11:29;;;;;;;11.80;7.90;;;;;;;22.94;35.67;94930.97;10409179;28;20397;-76
2021/04/25 07:16:31;;;;;;;14.70;7.65;;;;;;;22.67;34.54;94919.63;10391640;28;20268;-76
2021/04/25 07:21:31;;;;;;;15.27;6.38;;;;;;;24.09;32.02;94911.31;10408845;28;20037;-76
2021/04/25 07:26:31;;;;;;;9.52;5.70;;;;;;;24.55;31.42;94914.31;10407518;28;20440;-75
2021/04/25 07:31:32;;;;;;;10.63;6.40;;;;;;;23.81;31.74;94909.44;10408197;28;20022;-75
2021/04/25 07:36:32;;;;;;;11.95;6.20;;;;;;;24.74;30.47;94902.56;10408042;28;20334;-76
2021/04/25 07:41:33;;;;;;;11.98;5.57;;;;;;;24.52;30.92;94896.59;10390531;28;20111;-75
2021/04/25 07:46:34;;;;;;;10.68;7.07;;;;;;;24.12;30.04;94897.66;10407180;28;20040;-75
2021/04/25 07:51:34;;;;;;;6.67;4.83;;;;;;;24.81;30.75;94893.69;10388902;28;20075;-75
2021/04/25 07:56:35;;;;;;;7.80;4.38;;;;;;;24.33;29.20;94880.88;10407955;28;20056;-76
2021/04/25 08:01:35;;;;;;;8.60;3.77;;;;;;;25.46;26.58;94884.00;10389169;28;20032;-76
2021/04/25 08:06:36;;;;;;;6.40;3.40;;;;;;;25.02;28.03;94882.34;10407977;28;20112;-76
2021/04/25 08:11:37;;;;;;;6.77;3.43;;;;;;;25.05;27.48;94889.88;10407727;28;20103;-76
2021/04/25 08:16:37;;;;;;;6.68;4.18;;;;;;;25.28;27.50;94876.16;10407278;28;20280;-76
2021/04/25 08:21:38;;;;;;;8.67;4.27;;;;;;;25.75;28.09;94869.56;10406918;28;20041;-76
2021/04/25 08:26:38;;;;;;;8.20;3.57;;;;;;;26.47;24.87;94853.38;10407055;28;20333;-76
2021/04/25 08:31:39;;;;;;;11.05;3.67;;;;;;;27.59;25.20;94854.72;10406880;28;20067;-76
2021/04/25 08:36:39;;;;;;;6.20;3.70;;;;;;;26.71;24.79;94849.38;10406835;28;20429;-75
2021/04/25 08:41:40;;;;;;;7.05;3.83;;;;;;;25.76;25.58;94848.34;10406329;28;20040;-75
2021/04/25 08:46:41;;;;;;;7.88;3.55;;;;;;;27.15;25.63;94836.09;10406499;28;20430;-75
2021/04/25 08:51:42;;;;;;;6.03;3.15;;;;;;;26.99;24.58;94830.78;10407399;28;20105;-75
2021/04/25 08:56:43;;;;;;;6.50;3.60;;;;;;;27.12;24.41;94835.66;10410662;28;20113;-76
2021/04/25 09:01:44;;;;;;;6.50;3.08;;;;;;;27.87;23.43;94836.81;10414840;28;20424;-76
2021/04/25 09:07:05;;;;;;;6.45;2.80;;;;;;;29.58;22.00;94817.88;10395840;28;20423;-76
2021/04/25 09:12:05;;;;;;;5.28;2.60;;;;;;;28.66;22.11;94809.69;10413765;28;20036;-76
2021/04/25 09:17:08;;;;;;;4.75;2.30;;;;;;;29.83;20.76;94802.06;10413469;28;20025;-77
2021/04/25 09:22:08;;;;;;;3.30;2.13;;;;;;;30.29;18.87;94805.97;10413772;28;20017;-76
2021/04/25 09:27:08;;;;;;;5.83;1.80;;;;;;;29.81;17.61;94798.09;10396018;28;20041;-76
2021/04/25 09:32:16;;;;;;;4.05;2.03;;;;;;;30.78;16.94;94780.50;10413450;28;20037;-75
2021/04/25 09:37:19;;;;;;;4.05;1.70;;;;;;;29.24;18.19;94782.22;10413736;28;20033;-76
2021/04/25 09:42:20;;;;;;;4.22;1.98;;;;;;;29.90;16.69;94778.31;10395388;28;20049;-75
2021/04/25 09:47:30;;;;;;;1.53;1.30;;;;;;;30.98;14.79;94751.06;10413402;28;20029;-75
2021/04/25 09:52:36;;;;;;;2.10;1.40;;;;;;;32.40;13.96;94747.94;10419928;28;20033;-75
2021/04/25 09:57:37;;;;;;;2.42;1.05;;;;;;;31.98;13.82;94745.19;10395122;28;20037;-76
2021/04/25 10:02:57;;;;;;;6.10;1.70;;;;;;;30.30;16.78;94729.16;10412529;28;20033;-76
2021/04/25 10:07:59;;;;;;;2.72;1.25;;;;;;;30.61;14.34;94735.00;10412564;28;20116;-77
2021/04/25 10:13:00;;;;;;;2.53;1.52;;;;;;;30.79;16.66;94716.25;10412663;28;20025;-75
2021/04/25 10:18:00;;;;;;;3.28;1.85;;;;;;;31.34;16.61;94705.63;10411808;28;20033;-76
2021/04/25 10:23:02;;;;;;;7.50;2.37;;;;;;;31.14;18.04;94689.50;10394230;28;20079;-77
2021/04/25 10:28:08;;;;;;;6.78;2.80;;;;;;;32.16;17.07;94679.06;10394092;28;20033;-76
2021/04/25 10:33:09;;;;;;;6.78;2.92;;;;;;;32.80;17.47;94673.94;10411525;28;20044;-76
2021/04/25 10:38:12;;;;;;;4.75;1.70;;;;;;;32.72;16.15;94664.09;10411041;28;20033;-76
2021/04/25 10:43:14;;;;;;;2.55;1.50;;;;;;;33.99;14.75;94662.88;10410858;28;20049;-76
2021/04/25 10:48:17;;;;;;;2.63;1.20;;;;;;;33.52;14.22;94663.69;10410893;28;20045;-76
2021/04/25 10:53:20;;;;;;;2.95;1.10;;;;;;;32.92;12.54;94646.72;10411400;28;20041;-76
2021/04/25 10:58:22;;;;;;;2.05;1.42;;;;;;;32.67;13.57;94650.66;10410695;28;20450;-76
2021/04/25 11:03:22;;;;;;;4.00;1.70;;;;;;;32.01;13.79;94647.88;10410228;28;20442;-77
2021/04/25 11:08:32;;;;;;;2.72;1.38;;;;;;;31.37;12.34;94649.28;10410313;28;20116;-76
2021/04/25 11:13:35;;;;;;;3.78;1.17;;;;;;;28.33;13.99;94653.94;10409741;28;20026;-76
2021/04/25 11:19:07;;;;;;;2.05;1.23;;;;;;;24.69;16.63;94661.81;10408968;28;20025;-76
2021/04/25 11:24:07;;;;;;;6.60;1.50;;;;;;;23.22;17.37;94656.84;10409307;28;20075;-75
2021/04/25 11:29:16;;;;;;;7.25;1.80;;;;;;;21.43;18.27;94659.00;10408930;28;20036;-76
2021/04/25 11:34:26;;;;;;;3.50;1.35;;;;;;;20.44;20.11;94662.50;10409151;28;20029;-75
2021/04/25 11:39:27;;;;;;;3.95;2.15;;;;;;;20.24;19.83;94655.94;10408442;28;20029;-77
2021/04/25 11:44:30;;;;;;;5.43;1.80;;;;;;;19.79;17.92;94648.50;10406722;28;20107;-76
2021/04/25 11:49:32;;;;;;;4.60;2.05;;;;;;;19.39;21.12;94647.00;10407303;28;20091;-76
2021/04/25 11:54:32;;;;;;;6.00;2.17;;;;;;;19.14;22.65;94632.44;10407242;28;20041;-76
2021/04/25 11:59:33;;;;;;;2.85;1.75;;;;;;;18.89;23.61;94637.72;10407453;28;20037;-77
2021/04/25 12:04:56;;;;;;;2.80;1.73;;;;;;;18.50;26.20;94631.44;10407999;28;20404;-76
2021/04/25 12:09:56;;;;;;;2.58;1.70;;;;;;;18.79;21.36;94613.53;10407914;28;20052;-77
2021/04/25 12:15:05;;;;;;;3.45;1.75;;;;;;;18.68;23.91;94613.09;10407183;28;20520;-76
2021/04/25 12:20:06;;;;;;;4.45;2.63;;;;;;;18.44;25.66;94619.13;10389940;28;20022;-76
2021/04/25 12:25:07;;;;;;;5.97;2.10;;;;;;;18.23;26.51;94608.97;10389792;28;20033;-77
2021/04/25 12:30:21;;;;;;;5.38;2.58;;;;;;;18.35;26.58;94597.41;10409023;28;20365;-76
2021/04/25 12:35:23;;;;;;;6.63;2.33;;;;;;;18.50;27.36;94589.81;10416206;28;20079;-77
2021/04/25 12:40:32;;;;;;;5.18;2.80;;;;;;;18.47;26.90;94585.81;10416094;28;20030;-76
2021/04/25 12:45:32;;;;;;;5.47;2.55;;;;;;;18.34;27.92;94582.22;10415730;28;20472;-76
2021/04/25 12:50:33;;;;;;;8.70;2.47;;;;;;;18.16;28.85;94576.03;10415442;28;20032;-76
2021/04/25 12:55:34;;;;;;;3.90;2.57;;;;;;;18.19;31.19;94567.22;10414775;28;21006;-75
2021/04/25 13:00:34;;;;;;;7.95;3.00;;;;;;;18.16;29.53;94564.34;10413993;28;20025;-75
2021/04/25 13:05:53;;;;;;;5.03;2.70;;;;;;;17.98;29.05;94558.19;10413519;28;20034;-75
2021/04/25 13:10:53;;;;;;;5.00;3.03;;;;;;;17.79;31.47;94548.44;10414688;28;20403;-75
2021/04/25 13:15:54;;;;;;;6.83;2.77;;;;;;;17.52;32.11;94553.09;10414608;28;20021;-76
2021/04/25 13:20:54;;;;;;;8.43;2.60;;;;;;;17.53;31.84;94551.22;10413494;28;20032;-76
2021/04/25 13:25:57;;;;;;;6.35;2.53;;;;;;;17.67;31.49;94537.44;10413422;28;20030;-76
2021/04/25 13:31:00;;;;;;;5.40;2.90;;;;;;;17.60;30.75;94541.44;10412380;28;20025;-76
2021/04/25 13:36:03;;;;;;;3.78;2.42;;;;;;;17.67;30.93;94529.28;10413562;28;20025;-76
2021/04/25 13:41:04;;;;;;;9.70;3.03;;;;;;;17.75;30.93;94528.47;10412059;28;20080;-77
2021/04/25 13:46:04;;;;;;;4.55;3.28;;;;;;;17.73;30.58;94525.25;10413420;28;20569;-75
2021/04/25 13:51:07;;;;;;;6.05;2.83;;;;;;;17.52;30.52;94525.94;10413339;28;20841;-75
2021/04/25 13:56:08;;;;;;;5.88;3.50;;;;;;;17.65;31.19;94518.75;10413073;28;20030;-76
2021/04/25 14:01:09;;;;;;;5.10;2.92;;;;;;;17.73;31.65;94525.25;10412956;28;20489;-76
2021/04/25 14:06:09;;;;;;;8.10;3.25;;;;;;;17.68;32.25;94522.72;10412531;28;20032;-75
2021/04/25 14:11:10;;;;;;;3.92;2.25;;;;;;;17.75;31.69;94523.81;10412604;28;20022;-75
2021/04/25 14:16:11;;;;;;;5.32;3.10;;;;;;;17.71;31.27;94522.09;10412459;28;20401;-74
2021/04/25 14:21:12;;;;;;;8.60;3.15;;;;;;;17.70;32.92;94520.47;10411836;28;20025;-75
2021/04/25 14:26:13;;;;;;;4.55;3.00;;;;;;;17.70;32.98;94517.75;10411878;28;20033;-76
2021/04/25 14:31:14;;;;;;;8.55;3.78;;;;;;;17.68;31.92;94517.28;10411652;28;20025;-76
2021/04/25 14:36:14;;;;;;;4.45;2.80;;;;;;;17.54;31.95;94509.31;10411601;28;20033;-75
2021/04/25 14:41:15;;;;;;;7.30;3.40;;;;;;;17.46;32.60;94500.06;10410733;28;20018;-76
2021/04/25 14:46:16;;;;;;;7.85;3.17;;;;;;;17.47;32.13;94509.81;10410579;28;20363;-75
2021/04/25 14:51:16;;;;;;;6.10;3.38;;;;;;;17.44;32.38;94505.00;10393311;28;20026;-75
2021/04/25 14:56:17;;;;;;;5.22;3.35;;;;;;;17.33;32.12;94506.47;10410034;28;20060;-76
2021/04/25 15:01:17;;;;;;;8.48;3.22;;;;;;;17.30;32.23;94502.47;10410526;28;20549;-77
2021/04/25 15:06:17;;;;;;;6.20;3.47;;;;;;;17.28;32.86;94504.72;10410161;28;20025;-76
2021/04/25 15:11:18;;;;;;;3.27;2.30;;;;;;;17.27;32.38;94499.63;10410108;28;20484;-77
2021/04/25 15:16:19;;;;;;;6.43;3.05;;;;;;;17.11;32.48;94510.97;10410226;28;20274;-76
2021/04/25 15:21:19;;;;;;;4.00;2.78;;;;;;;16.99;32.43;94505.38;10409856;28;20033;-75
2021/04/25 15:26:20;;;;;;;5.83;2.70;;;;;;;16.86;32.46;94502.47;10409406;28;20447;-75
2021/04/25 15:31:21;;;;;;;3.72;2.53;;;;;;;16.94;32.78;94500.91;10409534;28;20479;-75
2021/04/25 15:36:21;;;;;;;6.33;2.70;;;;;;;16.84;33.26;94493.84;10408630;28;20108;-75
2021/04/25 15:41:21;;;;;;;5.50;2.97;;;;;;;16.79;33.60;94493.22;10408192;28;20033;-75
2021/04/25 15:46:22;;;;;;;12.20;3.37;;;;;;;16.71;33.25;94495.56;10408215;28;20060;-76
2021/04/25 15:51:22;;;;;;;7.27;2.93;;;;;;;16.67;33.02;94485.69;10407719;28;20100;-75
2021/04/25 15:56:24;;;;;;;3.50;2.63;;;;;;;16.73;33.56;94489.84;10408212;28;20087;-75
2021/04/25 16:01:24;;;;;;;4.30;3.50;;;;;;;16.65;35.44;94482.50;10389587;28;20021;-75
2021/04/25 16:06:29;;;;;;;7.25;4.18;;;;;;;16.51;35.96;94483.44;10407893;28;20030;-75
2021/04/25 16:11:30;;;;;;;8.38;4.80;;;;;;;16.59;36.76;94487.28;10408132;28;20486;-76
2021/04/25 16:16:31;;;;;;;6.43;4.18;;;;;;;16.58;35.82;94477.56;10405283;28;20021;-76
2021/04/25 16:21:34;;;;;;;7.80;3.10;;;;;;;16.39;36.28;94488.69;10388338;28;20032;-76
2021/04/25 16:26:35;;;;;;;5.47;3.78;;;;;;;16.20;37.42;94494.34;10405846;28;20540;-77
2021/04/25 16:31:35;;;;;;;7.32;3.65;;;;;;;16.14;37.81;94495.63;10405435;28;20024;-75
2021/04/25 16:36:39;;;;;;;6.37;4.27;;;;;;;16.10;38.09;94506.28;10406085;28;20022;-75
2021/04/25 16:41:40;;;;;;;9.68;5.25;;;;;;;16.07;39.72;94506.94;10405945;28;20076;-75
2021/04/25 16:46:42;;;;;;;10.82;5.15;;;;;;;15.97;41.06;94508.00;10406395;28;20040;-76
2021/04/25 16:51:43;;;;;;;8.82;5.18;;;;;;;15.69;42.52;94510.88;10405402;28;20037;-75
2021/04/25 16:56:44;;;;;;;7.88;5.00;;;;;;;15.38;43.84;94524.41;10387787;28;20048;-75
2021/04/25 17:01:45;;;;;;;14.00;6.30;;;;;;;15.08;44.98;94532.13;10405857;28;20029;-75
2021/04/25 17:06:46;;;;;;;12.50;5.43;;;;;;;14.85;46.47;94539.44;10388550;28;20037;-75
2021/04/25 17:11:47;;;;;;;11.57;6.05;;;;;;;14.72;47.53;94541.09;10406587;28;20272;-77
2021/04/25 17:16:47;;;;;;;9.43;5.43;;;;;;;14.55;48.40;94548.97;10407918;28;20030;-75
2021/04/25 17:21:48;;;;;;;16.00;5.40;;;;;;;14.39;49.09;94557.41;10413903;28;20029;-77
2021/04/25 17:26:49;;;;;;;10.95;6.20;;;;;;;14.28;50.24;94566.84;10413536;28;20630;-75
2021/04/25 17:31:50;;;;;;;12.95;5.43;;;;;;;14.28;52.11;94577.66;10413386;28;20029;-76
2021/04/25 17:36:50;;;;;;;7.80;5.63;;;;;;;14.22;52.01;94579.66;10413525;28;20033;-75
2021/04/25 17:41:51;;;;;;;8.83;6.00;;;;;;;14.13;52.78;94590.31;10412653;28;20052;-76
2021/04/25 17:46:51;;;;;;;9.00;6.00;;;;;;;13.82;54.49;94596.28;10412923;28;20276;-76
2021/04/25 17:51:52;;;;;;;12.05;6.95;;;;;;;13.67;55.68;94607.34;10412881;28;20276;-76
2021/04/25 17:56:52;;;;;;;11.32;5.88;;;;;;;13.62;57.12;94629.06;10412346;28;20071;-76
2021/04/25 18:01:52;;;;;;;11.33;6.27;;;;;;;13.62;57.93;94637.16;10412587;28;20549;-76
2021/04/25 18:06:53;;;;;;;10.73;6.13;;;;;;;13.51;58.21;94650.03;10412100;28;20351;-75
2021/04/25 18:11:55;;;;;;;12.20;7.03;;;;;;;13.39;60.03;94641.56;10411907;28;20021;-75
2021/04/25 18:16:57;;;;;;;15.63;7.43;;;;;;;13.25;62.12;94652.25;10412033;28;20057;-76
2021/04/25 18:21:57;;;;;;;16.80;7.60;;;;;;;13.03;66.53;94655.53;10411479;28;20052;-75
2021/04/25 18:26:58;;;;;;;14.73;6.82;;;;;;;12.99;69.57;94666.06;10410694;28;20087;-75
2021/04/25 18:31:58;;;;;;;18.97;7.93;;;;;;;12.92;72.53;94688.03;10410784;28;20105;-76
2021/04/25 18:36:58;;;;;;;13.33;8.20;;;;;;;12.85;74.88;94687.59;10411239;28;20065;-75
2021/04/25 18:41:59;;;;;;;24.23;11.43;;;;;;;12.68;77.15;94698.81;10410195;28;20782;-75
2021/04/25 18:47:00;;;;;;;16.98;10.93;;;;;;;12.61;76.72;94701.06;10410629;28;20021;-76
2021/04/25 18:52:04;;;;;;;21.70;12.35;;;;;;;12.44;76.25;94715.00;10369673;28;20018;-76
2021/04/25 18:57:04;;;;;;;23.50;13.38;;;;;;;12.21;76.58;94721.94;10368965;28;20029;-76
2021/04/25 19:02:05;;;;;;;28.92;15.38;;;;;;;12.13;76.73;94728.75;10369099;28;20037;-76
2021/04/25 19:07:05;;;;;;;24.25;13.77;;;;;;;12.18;77.39;94735.97;10350500;28;20034;-76
2021/04/25 19:12:06;;;;;;;17.88;11.98;;;;;;;12.02;78.26;94732.63;10366715;28;20076;-76
2021/04/25 19:17:06;;;;;;;19.30;8.38;;;;;;;11.90;79.48;94741.03;10368416;28;20021;-76
2021/04/25 19:22:07;;;;;;;14.13;6.73;;;;;;;11.58;83.43;94743.13;10366206;28;20633;-75
2021/04/25 19:27:07;;;;;;;13.15;8.30;;;;;;;11.48;84.29;94742.41;10368063;28;20528;-76
2021/04/25 19:32:08;;;;;;;11.02;7.13;;;;;;;11.39;85.81;94744.88;10367856;28;20026;-76
2021/04/25 19:37:08;;;;;;;19.85;8.00;;;;;;;11.25;86.38;94745.47;10367844;28;20083;-76
2021/04/25 19:42:09;;;;;;;21.15;7.63;;;;;;;11.11;88.28;94744.47;10367167;28;20155;-75
2021/04/25 19:47:09;;;;;;;14.32;8.50;;;;;;;11.10;89.24;94743.66;10367238;28;20373;-75
2021/04/25 19:52:10;;;;;;;20.10;11.70;;;;;;;10.96;90.74;94750.72;10367005;28;20026;-76
2021/04/25 19:57:10;;;;;;;34.53;19.23;;;;;;;10.92;92.36;94752.34;10367013;28;20042;-75
2021/04/25 20:02:11;;;;;;;28.00;15.82;;;;;;;10.79;94.36;94745.66;10349079;28;20141;-75
2021/04/25 20:07:11;;;;;;;26.58;13.50;;;;;;;10.77;95.76;94745.94;10366677;28;20639;-75
2021/04/25 20:12:11;;;;;;;25.77;12.10;;;;;;;10.70;96.83;94744.59;10366733;28;20026;-76
2021/04/25 20:17:12;;;;;;;24.50;11.60;;;;;;;10.62;97.59;94743.31;10366586;28;20281;-75
2021/04/25 20:22:12;;;;;;;19.10;10.35;;;;;;;10.45;98.37;94742.78;10366246;28;20375;-75
2021/04/25 20:27:13;;;;;;;24.90;10.87;;;;;;;10.48;98.75;94740.38;10366389;28;20029;-75
2021/04/25 20:32:14;;;;;;;18.98;9.43;;;;;;;10.24;99.67;94748.16;10365924;28;20814;-75
2021/04/25 20:37:14;;;;;;;16.80;9.57;;;;;;;10.30;100.00;94747.09;10365829;28;20033;-75
2021/04/25 20:42:16;;;;;;;14.83;7.90;;;;;;;10.10;98.27;94739.84;10364216;28;20409;-74
2021/04/25 20:47:17;;;;;;;13.95;8.18;;;;;;;10.05;98.69;94737.97;10365067;28;20269;-76
2021/04/25 20:52:17;;;;;;;24.63;9.23;;;;;;;9.93;100.00;94740.13;10367706;28;20080;-76
2021/04/25 20:57:17;;;;;;;33.57;16.63;;;;;;;9.96;100.00;94741.47;10374338;28;20472;-75
2021/04/25 21:02:18;;;;;;;26.13;15.70;;;;;;;10.01;99.06;94744.16;10374071;28;20512;-76
2021/04/25 21:07:18;;;;;;;24.20;9.88;;;;;;;9.93;99.60;94750.84;10373718;28;20036;-75
2021/04/25 21:12:19;;;;;;;10.25;7.68;;;;;;;9.92;100.00;94752.75;10373806;28;20024;-75
2021/04/25 21:17:21;;;;;;;15.43;7.80;;;;;;;9.89;100.00;94747.09;10372855;28;20021;-75
2021/04/25 21:22:22;;;;;;;17.17;9.10;;;;;;;9.77;100.00;94744.69;10371763;28;20058;-75
2021/04/25 21:27:22;;;;;;;12.65;8.63;;;;;;;9.69;100.00;94754.06;10372336;28;20528;-76
2021/04/25 21:32:23;;;;;;;13.70;7.73;;;;;;;9.67;100.00;94766.13;10372855;28;20192;-75
2021/04/25 21:37:23;;;;;;;15.30;8.50;;;;;;;9.39;100.00;94765.53;10354457;28;20283;-75
2021/04/25 21:42:24;;;;;;;19.15;9.52;;;;;;;9.41;100.00;94772.25;10383433;28;20288;-75
2021/04/25 21:47:24;;;;;;;23.05;10.90;;;;;;;9.44;100.00;94778.19;10413335;28;20037;-75
2021/04/25 21:52:25;;;;;;;18.45;9.10;;;;;;;9.35;100.00;94793.97;10413315;28;20029;-75
2021/04/25 21:57:25;;;;;;;21.88;10.88;;;;;;;9.37;100.00;94776.53;10413014;28;20442;-76
2021/04/25 22:02:25;;;;;;;17.63;10.63;;;;;;;9.24;100.00;94775.16;10412221;28;20096;-75
2021/04/25 22:07:26;;;;;;;17.10;10.07;;;;;;;9.19;100.00;94769.78;10412095;28;20298;-75
2021/04/25 22:12:26;;;;;;;18.60;10.57;;;;;;;9.10;100.00;94770.56;10412349;28;20075;-75
2021/04/25 22:17:26;;;;;;;14.17;8.97;;;;;;;8.99;100.00;94764.38;10412362;28;20029;-75
2021/04/25 22:22:27;;;;;;;14.23;8.33;;;;;;;8.89;100.00;94760.56;10411908;28;20485;-75
2021/04/25 22:27:27;;;;;;;22.17;10.23;;;;;;;8.74;100.00;94760.50;10411608;28;20033;-76
2021/04/25 22:32:28;;;;;;;18.15;8.90;;;;;;;8.71;100.00;94766.38;10411814;28;20059;-76
2021/04/25 22:37:28;;;;;;;21.02;9.90;;;;;;;8.65;100.00;94762.88;10411737;28;20102;-76
2021/04/25 22:42:29;;;;;;;22.43;10.53;;;;;;;8.57;100.00;94754.50;10411055;28;20057;-75
2021/04/25 22:47:29;;;;;;;20.87;10.60;;;;;;;8.20;100.00;94761.47;10411386;28;20363;-75
2021/04/25 22:52:29;;;;;;;26.80;10.60;;;;;;;8.25;100.00;94768.72;10411064;28;20037;-75
2021/04/25 22:57:31;;;;;;;14.47;9.33;;;;;;;8.15;100.00;94748.06;10410901;28;20029;-75
2021/04/25 23:02:31;;;;;;;16.02;9.57;;;;;;;8.15;100.00;94750.72;10410527;28;20105;-75